sensor_id;sensor_type;location;lat;lon;timestamp;temperature;humidity
23147;DHT22;11742;53.532;-1.478;2023-02-02T00:00:15;11.80;91.60
23147;DHT22;11742;53.532;-1.478;2023-02-02T00:02:41;11.80;91.60
23147;DHT22;11742;53.532;-1.478;2023-02-02T00:05:06;11.80;91.60
23147;DHT22;11742;53.532;-1.478;2023-02-02T00:07:32;11.80;91.60
23147;DHT22;11742;53.532;-1.478;2023-02-02T00:09:58;11.80;91.70
23147;DHT22;11742;53.532;-1.478;2023-02-02T00:12:23;11.80;91.60
23147;DHT22;11742;53.532;-1.478;2023-02-02T00:14:49;11.80;91.60
23147;DHT22;11742;53.532;-1.478;2023-02-02T00:17:14;11.80;91.60
23147;DHT22;11742;53.532;-1.478;2023-02-02T00:19:40;11.80;91.60
23147;DHT22;11742;53.532;-1.478;2023-02-02T00:22:05;11.90;91.60
23147;DHT22;11742;53.532;-1.478;2023-02-02T00:24:31;11.80;91.60
23147;DHT22;11742;53.532;-1.478;2023-02-02T00:26:57;11.80;91.50
23147;DHT22;11742;53.532;-1.478;2023-02-02T00:29:23;11.90;91.50
23147;DHT22;11742;53.532;-1.478;2023-02-02T00:31:49;11.80;91.50
23147;DHT22;11742;53.532;-1.478;2023-02-02T00:34:16;11.80;91.40
23147;DHT22;11742;53.532;-1.478;2023-02-02T00:36:42;11.80;91.40
23147;DHT22;11742;53.532;-1.478;2023-02-02T00:39:08;11.80;91.40
23147;DHT22;11742;53.532;-1.478;2023-02-02T00:41:34;11.80;91.40
23147;DHT22;11742;53.532;-1.478;2023-02-02T00:43:59;11.80;91.40
23147;DHT22;11742;53.532;-1.478;2023-02-02T00:46:43;11.80;91.40
23147;DHT22;11742;53.532;-1.478;2023-02-02T00:49:09;11.80;91.30
23147;DHT22;11742;53.532;-1.478;2023-02-02T00:51:35;11.80;91.30
23147;DHT22;11742;53.532;-1.478;2023-02-02T00:54:00;11.80;91.30
23147;DHT22;11742;53.532;-1.478;2023-02-02T00:56:26;11.80;91.30
23147;DHT22;11742;53.532;-1.478;2023-02-02T00:58:52;11.90;91.30
23147;DHT22;11742;53.532;-1.478;2023-02-02T01:01:18;11.80;91.30
23147;DHT22;11742;53.532;-1.478;2023-02-02T01:03:45;11.80;91.30
23147;DHT22;11742;53.532;-1.478;2023-02-02T01:06:10;11.80;91.30
23147;DHT22;11742;53.532;-1.478;2023-02-02T01:08:36;11.90;91.30
23147;DHT22;11742;53.532;-1.478;2023-02-02T01:11:02;11.80;91.30
23147;DHT22;11742;53.532;-1.478;2023-02-02T01:13:27;11.80;91.30
23147;DHT22;11742;53.532;-1.478;2023-02-02T01:15:56;11.90;91.30
23147;DHT22;11742;53.532;-1.478;2023-02-02T01:18:21;11.80;91.20
23147;DHT22;11742;53.532;-1.478;2023-02-02T01:20:47;11.90;91.20
23147;DHT22;11742;53.532;-1.478;2023-02-02T01:23:12;11.90;91.20
23147;DHT22;11742;53.532;-1.478;2023-02-02T01:25:38;11.90;91.20
23147;DHT22;11742;53.532;-1.478;2023-02-02T01:28:04;11.90;91.20
23147;DHT22;11742;53.532;-1.478;2023-02-02T01:30:29;11.90;91.20
23147;DHT22;11742;53.532;-1.478;2023-02-02T01:32:55;11.90;91.10
23147;DHT22;11742;53.532;-1.478;2023-02-02T01:35:20;11.90;91.20
23147;DHT22;11742;53.532;-1.478;2023-02-02T01:37:46;11.90;91.20
23147;DHT22;11742;53.532;-1.478;2023-02-02T01:40:12;11.90;91.20
23147;DHT22;11742;53.532;-1.478;2023-02-02T01:42:37;11.90;91.60
23147;DHT22;11742;53.532;-1.478;2023-02-02T01:45:12;11.90;91.20
23147;DHT22;11742;53.532;-1.478;2023-02-02T01:47:41;11.90;91.20
23147;DHT22;11742;53.532;-1.478;2023-02-02T01:50:08;11.90;91.20
23147;DHT22;11742;53.532;-1.478;2023-02-02T01:52:34;11.90;91.20
23147;DHT22;11742;53.532;-1.478;2023-02-02T01:55:01;11.90;91.20
23147;DHT22;11742;53.532;-1.478;2023-02-02T01:57:37;11.90;91.20
23147;DHT22;11742;53.532;-1.478;2023-02-02T02:00:05;11.80;91.20
23147;DHT22;11742;53.532;-1.478;2023-02-02T02:02:31;11.90;91.40
23147;DHT22;11742;53.532;-1.478;2023-02-02T02:04:57;11.90;91.30
23147;DHT22;11742;53.532;-1.478;2023-02-02T02:07:24;11.90;91.30
23147;DHT22;11742;53.532;-1.478;2023-02-02T02:09:50;11.90;91.20
23147;DHT22;11742;53.532;-1.478;2023-02-02T02:12:15;11.80;91.20
23147;DHT22;11742;53.532;-1.478;2023-02-02T02:14:45;11.80;91.20
23147;DHT22;11742;53.532;-1.478;2023-02-02T02:17:42;11.80;91.20
23147;DHT22;11742;53.532;-1.478;2023-02-02T02:20:31;11.80;91.20
23147;DHT22;11742;53.532;-1.478;2023-02-02T02:23:38;11.80;91.20
23147;DHT22;11742;53.532;-1.478;2023-02-02T02:34:50;11.80;91.30
23147;DHT22;11742;53.532;-1.478;2023-02-02T02:37:09;11.80;91.40
23147;DHT22;11742;53.532;-1.478;2023-02-02T02:39:49;11.80;91.40
23147;DHT22;11742;53.532;-1.478;2023-02-02T02:42:20;11.80;91.40
23147;DHT22;11742;53.532;-1.478;2023-02-02T02:44:47;11.80;91.40
23147;DHT22;11742;53.532;-1.478;2023-02-02T02:47:13;11.80;91.50
23147;DHT22;11742;53.532;-1.478;2023-02-02T02:49:46;11.80;91.50
23147;DHT22;11742;53.532;-1.478;2023-02-02T02:52:12;11.80;91.60
23147;DHT22;11742;53.532;-1.478;2023-02-02T02:54:48;11.80;91.70
23147;DHT22;11742;53.532;-1.478;2023-02-02T02:57:24;11.80;91.70
23147;DHT22;11742;53.532;-1.478;2023-02-02T03:05:12;11.80;91.80
23147;DHT22;11742;53.532;-1.478;2023-02-02T03:07:42;11.80;91.80
23147;DHT22;11742;53.532;-1.478;2023-02-02T03:10:10;11.80;91.80
23147;DHT22;11742;53.532;-1.478;2023-02-02T03:12:43;11.80;91.80
23147;DHT22;11742;53.532;-1.478;2023-02-02T03:15:09;11.80;91.80
23147;DHT22;11742;53.532;-1.478;2023-02-02T03:17:34;11.90;91.90
23147;DHT22;11742;53.532;-1.478;2023-02-02T03:20:00;11.80;91.90
23147;DHT22;11742;53.532;-1.478;2023-02-02T03:22:25;11.80;91.90
23147;DHT22;11742;53.532;-1.478;2023-02-02T03:24:51;11.90;91.90
23147;DHT22;11742;53.532;-1.478;2023-02-02T03:27:17;11.90;91.90
23147;DHT22;11742;53.532;-1.478;2023-02-02T03:29:43;11.90;91.80
23147;DHT22;11742;53.532;-1.478;2023-02-02T03:32:08;11.90;91.90
23147;DHT22;11742;53.532;-1.478;2023-02-02T03:34:34;11.90;91.90
23147;DHT22;11742;53.532;-1.478;2023-02-02T03:36:59;11.90;91.90
23147;DHT22;11742;53.532;-1.478;2023-02-02T03:39:25;11.90;91.90
23147;DHT22;11742;53.532;-1.478;2023-02-02T03:41:50;11.90;91.90
23147;DHT22;11742;53.532;-1.478;2023-02-02T03:44:16;11.90;91.80
23147;DHT22;11742;53.532;-1.478;2023-02-02T03:46:41;11.90;91.80
23147;DHT22;11742;53.532;-1.478;2023-02-02T03:49:07;11.90;91.80
23147;DHT22;11742;53.532;-1.478;2023-02-02T03:51:32;11.90;91.80
23147;DHT22;11742;53.532;-1.478;2023-02-02T03:53:58;11.90;91.80
23147;DHT22;11742;53.532;-1.478;2023-02-02T03:56:24;11.90;91.80
23147;DHT22;11742;53.532;-1.478;2023-02-02T03:58:49;11.90;91.70
23147;DHT22;11742;53.532;-1.478;2023-02-02T04:01:15;11.90;91.70
23147;DHT22;11742;53.532;-1.478;2023-02-02T04:03:40;11.90;91.80
23147;DHT22;11742;53.532;-1.478;2023-02-02T04:06:06;11.90;91.70
23147;DHT22;11742;53.532;-1.478;2023-02-02T04:08:31;11.90;91.70
23147;DHT22;11742;53.532;-1.478;2023-02-02T04:10:58;11.90;91.80
23147;DHT22;11742;53.532;-1.478;2023-02-02T04:13:24;11.90;91.70
23147;DHT22;11742;53.532;-1.478;2023-02-02T04:15:58;11.90;91.70
23147;DHT22;11742;53.532;-1.478;2023-02-02T04:18:24;11.90;91.70
23147;DHT22;11742;53.532;-1.478;2023-02-02T04:20:54;11.90;91.70
23147;DHT22;11742;53.532;-1.478;2023-02-02T04:23:20;11.90;91.70
23147;DHT22;11742;53.532;-1.478;2023-02-02T04:25:49;11.90;91.60
23147;DHT22;11742;53.532;-1.478;2023-02-02T04:28:14;11.90;91.60
23147;DHT22;11742;53.532;-1.478;2023-02-02T04:30:40;11.90;91.60
23147;DHT22;11742;53.532;-1.478;2023-02-02T04:33:06;11.90;91.60
23147;DHT22;11742;53.532;-1.478;2023-02-02T04:35:31;11.80;91.50
23147;DHT22;11742;53.532;-1.478;2023-02-02T04:37:57;11.80;91.50
23147;DHT22;11742;53.532;-1.478;2023-02-02T04:40:22;11.80;91.50
23147;DHT22;11742;53.532;-1.478;2023-02-02T04:42:48;11.90;91.50
23147;DHT22;11742;53.532;-1.478;2023-02-02T04:45:13;11.80;91.50
23147;DHT22;11742;53.532;-1.478;2023-02-02T04:47:39;11.80;91.40
23147;DHT22;11742;53.532;-1.478;2023-02-02T04:50:05;11.80;91.40
23147;DHT22;11742;53.532;-1.478;2023-02-02T04:52:30;11.80;91.40
23147;DHT22;11742;53.532;-1.478;2023-02-02T04:54:56;11.80;91.40
23147;DHT22;11742;53.532;-1.478;2023-02-02T04:57:21;11.80;91.40
23147;DHT22;11742;53.532;-1.478;2023-02-02T04:59:47;11.80;91.40
23147;DHT22;11742;53.532;-1.478;2023-02-02T05:02:13;11.80;91.40
23147;DHT22;11742;53.532;-1.478;2023-02-02T05:04:38;11.80;91.40
23147;DHT22;11742;53.532;-1.478;2023-02-02T05:07:04;11.80;91.40
23147;DHT22;11742;53.532;-1.478;2023-02-02T05:09:29;11.80;91.50
23147;DHT22;11742;53.532;-1.478;2023-02-02T05:11:55;11.80;91.60
23147;DHT22;11742;53.532;-1.478;2023-02-02T05:14:20;11.80;91.60
23147;DHT22;11742;53.532;-1.478;2023-02-02T05:16:46;11.80;91.50
23147;DHT22;11742;53.532;-1.478;2023-02-02T05:19:12;11.80;91.50
23147;DHT22;11742;53.532;-1.478;2023-02-02T05:21:37;11.80;91.60
23147;DHT22;11742;53.532;-1.478;2023-02-02T05:24:03;11.80;91.50
23147;DHT22;11742;53.532;-1.478;2023-02-02T05:26:29;11.80;91.60
23147;DHT22;11742;53.532;-1.478;2023-02-02T05:28:54;11.80;91.50
23147;DHT22;11742;53.532;-1.478;2023-02-02T05:31:20;11.80;91.60
23147;DHT22;11742;53.532;-1.478;2023-02-02T05:33:46;11.80;91.60
23147;DHT22;11742;53.532;-1.478;2023-02-02T05:36:11;11.80;91.50
23147;DHT22;11742;53.532;-1.478;2023-02-02T05:38:37;11.80;91.60
23147;DHT22;11742;53.532;-1.478;2023-02-02T05:41:03;11.80;91.60
23147;DHT22;11742;53.532;-1.478;2023-02-02T05:43:29;11.80;91.60
23147;DHT22;11742;53.532;-1.478;2023-02-02T05:45:55;11.80;91.70
23147;DHT22;11742;53.532;-1.478;2023-02-02T05:48:20;11.80;91.70
23147;DHT22;11742;53.532;-1.478;2023-02-02T05:50:48;11.80;91.70
23147;DHT22;11742;53.532;-1.478;2023-02-02T05:53:20;11.80;91.90
23147;DHT22;11742;53.532;-1.478;2023-02-02T05:55:46;11.80;91.90
23147;DHT22;11742;53.532;-1.478;2023-02-02T05:58:12;11.80;91.90
23147;DHT22;11742;53.532;-1.478;2023-02-02T06:00:38;11.80;91.90
23147;DHT22;11742;53.532;-1.478;2023-02-02T06:03:03;11.80;92.00
23147;DHT22;11742;53.532;-1.478;2023-02-02T06:05:29;11.80;92.00
23147;DHT22;11742;53.532;-1.478;2023-02-02T06:07:54;11.80;92.00
23147;DHT22;11742;53.532;-1.478;2023-02-02T06:10:20;11.80;92.10
23147;DHT22;11742;53.532;-1.478;2023-02-02T06:12:45;11.80;92.00
23147;DHT22;11742;53.532;-1.478;2023-02-02T06:15:11;11.80;92.10
23147;DHT22;11742;53.532;-1.478;2023-02-02T06:17:36;11.80;92.00
23147;DHT22;11742;53.532;-1.478;2023-02-02T06:20:02;11.80;92.10
23147;DHT22;11742;53.532;-1.478;2023-02-02T06:22:28;11.80;92.10
23147;DHT22;11742;53.532;-1.478;2023-02-02T06:24:54;11.80;92.10
23147;DHT22;11742;53.532;-1.478;2023-02-02T06:27:20;11.80;92.10
23147;DHT22;11742;53.532;-1.478;2023-02-02T06:29:45;11.80;92.10
23147;DHT22;11742;53.532;-1.478;2023-02-02T06:32:11;11.80;92.10
23147;DHT22;11742;53.532;-1.478;2023-02-02T06:34:37;11.80;92.20
23147;DHT22;11742;53.532;-1.478;2023-02-02T06:37:02;11.80;92.20
23147;DHT22;11742;53.532;-1.478;2023-02-02T06:39:28;11.80;92.20
23147;DHT22;11742;53.532;-1.478;2023-02-02T06:41:53;11.80;92.50
23147;DHT22;11742;53.532;-1.478;2023-02-02T06:44:19;11.90;92.30
23147;DHT22;11742;53.532;-1.478;2023-02-02T06:46:45;11.90;92.20
23147;DHT22;11742;53.532;-1.478;2023-02-02T06:49:11;11.90;92.40
23147;DHT22;11742;53.532;-1.478;2023-02-02T06:51:36;11.90;92.40
23147;DHT22;11742;53.532;-1.478;2023-02-02T06:54:02;11.90;92.40
23147;DHT22;11742;53.532;-1.478;2023-02-02T06:56:28;11.90;92.40
23147;DHT22;11742;53.532;-1.478;2023-02-02T06:58:54;11.90;92.30
23147;DHT22;11742;53.532;-1.478;2023-02-02T07:01:19;11.90;92.40
23147;DHT22;11742;53.532;-1.478;2023-02-02T07:03:48;11.90;92.40
23147;DHT22;11742;53.532;-1.478;2023-02-02T07:06:23;11.90;92.40
23147;DHT22;11742;53.532;-1.478;2023-02-02T07:08:49;11.90;92.30
23147;DHT22;11742;53.532;-1.478;2023-02-02T07:11:15;11.90;92.40
23147;DHT22;11742;53.532;-1.478;2023-02-02T07:13:41;11.90;92.40
23147;DHT22;11742;53.532;-1.478;2023-02-02T07:16:07;11.90;92.40
23147;DHT22;11742;53.532;-1.478;2023-02-02T07:18:37;11.90;92.50
23147;DHT22;11742;53.532;-1.478;2023-02-02T07:21:02;11.90;92.50
23147;DHT22;11742;53.532;-1.478;2023-02-02T07:23:28;11.90;92.50
23147;DHT22;11742;53.532;-1.478;2023-02-02T07:26:04;12.00;92.60
23147;DHT22;11742;53.532;-1.478;2023-02-02T07:28:29;12.00;92.70
23147;DHT22;11742;53.532;-1.478;2023-02-02T07:30:55;12.00;92.60
23147;DHT22;11742;53.532;-1.478;2023-02-02T07:33:21;12.00;92.60
23147;DHT22;11742;53.532;-1.478;2023-02-02T07:35:46;12.00;92.60
23147;DHT22;11742;53.532;-1.478;2023-02-02T07:38:12;12.00;92.60
23147;DHT22;11742;53.532;-1.478;2023-02-02T07:40:37;12.00;92.60
23147;DHT22;11742;53.532;-1.478;2023-02-02T07:43:03;12.00;92.60
23147;DHT22;11742;53.532;-1.478;2023-02-02T07:45:29;12.00;92.60
23147;DHT22;11742;53.532;-1.478;2023-02-02T07:47:58;12.00;92.70
23147;DHT22;11742;53.532;-1.478;2023-02-02T07:50:24;12.00;92.70
23147;DHT22;11742;53.532;-1.478;2023-02-02T07:52:50;12.00;92.70
23147;DHT22;11742;53.532;-1.478;2023-02-02T07:55:15;12.00;92.70
23147;DHT22;11742;53.532;-1.478;2023-02-02T07:57:41;12.00;92.80
23147;DHT22;11742;53.532;-1.478;2023-02-02T08:00:07;12.00;92.70
23147;DHT22;11742;53.532;-1.478;2023-02-02T08:02:33;12.00;92.80
23147;DHT22;11742;53.532;-1.478;2023-02-02T08:04:59;12.00;92.70
23147;DHT22;11742;53.532;-1.478;2023-02-02T08:07:24;12.00;92.80
23147;DHT22;11742;53.532;-1.478;2023-02-02T08:09:50;12.00;92.80
23147;DHT22;11742;53.532;-1.478;2023-02-02T08:12:16;12.00;92.70
23147;DHT22;11742;53.532;-1.478;2023-02-02T08:14:42;12.00;92.70
23147;DHT22;11742;53.532;-1.478;2023-02-02T08:17:07;12.10;92.70
23147;DHT22;11742;53.532;-1.478;2023-02-02T08:19:33;12.10;92.70
23147;DHT22;11742;53.532;-1.478;2023-02-02T08:21:58;12.10;92.80
23147;DHT22;11742;53.532;-1.478;2023-02-02T08:24:24;12.10;92.80
23147;DHT22;11742;53.532;-1.478;2023-02-02T08:26:49;12.10;92.70
23147;DHT22;11742;53.532;-1.478;2023-02-02T08:29:15;12.10;92.70
23147;DHT22;11742;53.532;-1.478;2023-02-02T08:31:42;12.10;92.70
23147;DHT22;11742;53.532;-1.478;2023-02-02T08:34:08;12.10;92.80
23147;DHT22;11742;53.532;-1.478;2023-02-02T08:36:34;12.10;92.80
23147;DHT22;11742;53.532;-1.478;2023-02-02T08:39:00;12.20;92.80
23147;DHT22;11742;53.532;-1.478;2023-02-02T08:41:26;12.20;92.90
23147;DHT22;11742;53.532;-1.478;2023-02-02T08:43:52;12.20;92.90
23147;DHT22;11742;53.532;-1.478;2023-02-02T08:46:18;12.20;92.90
23147;DHT22;11742;53.532;-1.478;2023-02-02T08:48:44;12.20;92.90
23147;DHT22;11742;53.532;-1.478;2023-02-02T08:51:11;12.20;93.00
23147;DHT22;11742;53.532;-1.478;2023-02-02T08:53:37;12.20;93.00
23147;DHT22;11742;53.532;-1.478;2023-02-02T08:56:08;12.20;93.10
23147;DHT22;11742;53.532;-1.478;2023-02-02T08:58:33;12.20;93.10
23147;DHT22;11742;53.532;-1.478;2023-02-02T09:01:05;12.20;93.00
23147;DHT22;11742;53.532;-1.478;2023-02-02T09:03:31;12.20;93.10
23147;DHT22;11742;53.532;-1.478;2023-02-02T09:05:57;12.20;92.90
23147;DHT22;11742;53.532;-1.478;2023-02-02T09:08:22;12.30;93.20
23147;DHT22;11742;53.532;-1.478;2023-02-02T09:10:48;12.30;93.60
23147;DHT22;11742;53.532;-1.478;2023-02-02T09:13:13;12.30;93.60
23147;DHT22;11742;53.532;-1.478;2023-02-02T09:15:39;12.30;93.50
23147;DHT22;11742;53.532;-1.478;2023-02-02T09:18:04;12.30;93.40
23147;DHT22;11742;53.532;-1.478;2023-02-02T09:20:30;12.30;93.30
23147;DHT22;11742;53.532;-1.478;2023-02-02T09:22:56;12.30;93.40
23147;DHT22;11742;53.532;-1.478;2023-02-02T09:25:22;12.30;93.30
23147;DHT22;11742;53.532;-1.478;2023-02-02T09:27:49;12.30;93.30
23147;DHT22;11742;53.532;-1.478;2023-02-02T09:30:14;12.30;93.30
23147;DHT22;11742;53.532;-1.478;2023-02-02T09:32:40;12.30;93.30
23147;DHT22;11742;53.532;-1.478;2023-02-02T09:35:05;12.40;93.30
23147;DHT22;11742;53.532;-1.478;2023-02-02T09:37:32;12.40;93.20
23147;DHT22;11742;53.532;-1.478;2023-02-02T09:39:58;12.40;93.20
23147;DHT22;11742;53.532;-1.478;2023-02-02T09:42:32;12.40;93.20
23147;DHT22;11742;53.532;-1.478;2023-02-02T09:45:05;12.40;93.10
23147;DHT22;11742;53.532;-1.478;2023-02-02T09:47:51;12.50;93.20
23147;DHT22;11742;53.532;-1.478;2023-02-02T09:52:54;12.50;93.20
23147;DHT22;11742;53.532;-1.478;2023-02-02T09:57:56;12.50;93.00
23147;DHT22;11742;53.532;-1.478;2023-02-02T10:00:26;12.50;93.00
23147;DHT22;11742;53.532;-1.478;2023-02-02T10:02:55;12.40;93.10
23147;DHT22;11742;53.532;-1.478;2023-02-02T10:05:23;12.40;93.30
23147;DHT22;11742;53.532;-1.478;2023-02-02T10:07:52;12.40;93.30
23147;DHT22;11742;53.532;-1.478;2023-02-02T10:22:49;12.20;94.10
23147;DHT22;11742;53.532;-1.478;2023-02-02T10:25:15;12.20;94.00
23147;DHT22;11742;53.532;-1.478;2023-02-02T10:27:42;12.30;93.90
23147;DHT22;11742;53.532;-1.478;2023-02-02T10:30:14;12.30;93.90
23147;DHT22;11742;53.532;-1.478;2023-02-02T10:35:35;12.30;93.70
23147;DHT22;11742;53.532;-1.478;2023-02-02T10:43:31;12.40;93.50
23147;DHT22;11742;53.532;-1.478;2023-02-02T10:46:19;12.50;93.50
23147;DHT22;11742;53.532;-1.478;2023-02-02T10:48:46;12.50;93.40
23147;DHT22;11742;53.532;-1.478;2023-02-02T10:51:22;12.50;93.30
23147;DHT22;11742;53.532;-1.478;2023-02-02T10:53:52;12.60;93.30
23147;DHT22;11742;53.532;-1.478;2023-02-02T10:56:19;12.60;93.50
23147;DHT22;11742;53.532;-1.478;2023-02-02T11:01:15;12.70;93.50
23147;DHT22;11742;53.532;-1.478;2023-02-02T11:03:42;12.80;93.50
23147;DHT22;11742;53.532;-1.478;2023-02-02T11:06:09;12.90;93.50
23147;DHT22;11742;53.532;-1.478;2023-02-02T11:08:54;13.00;93.50
23147;DHT22;11742;53.532;-1.478;2023-02-02T11:11:37;13.00;93.50
23147;DHT22;11742;53.532;-1.478;2023-02-02T11:16:35;13.20;93.40
23147;DHT22;11742;53.532;-1.478;2023-02-02T11:19:10;13.20;93.20
23147;DHT22;11742;53.532;-1.478;2023-02-02T11:21:51;13.20;93.20
23147;DHT22;11742;53.532;-1.478;2023-02-02T11:24:38;13.20;93.10
23147;DHT22;11742;53.532;-1.478;2023-02-02T11:29:44;13.20;93.00
23147;DHT22;11742;53.532;-1.478;2023-02-02T11:37:27;13.20;92.90
23147;DHT22;11742;53.532;-1.478;2023-02-02T11:39:52;13.30;92.90
23147;DHT22;11742;53.532;-1.478;2023-02-02T11:42:21;13.30;92.90
23147;DHT22;11742;53.532;-1.478;2023-02-02T11:44:57;13.30;92.90
23147;DHT22;11742;53.532;-1.478;2023-02-02T11:47:24;13.30;92.80
23147;DHT22;11742;53.532;-1.478;2023-02-02T11:49:50;13.30;92.80
23147;DHT22;11742;53.532;-1.478;2023-02-02T11:52:23;13.30;92.80
23147;DHT22;11742;53.532;-1.478;2023-02-02T11:54:50;13.30;92.80
23147;DHT22;11742;53.532;-1.478;2023-02-02T11:57:17;13.30;92.80
23147;DHT22;11742;53.532;-1.478;2023-02-02T11:59:44;13.30;92.80
23147;DHT22;11742;53.532;-1.478;2023-02-02T12:02:24;13.30;92.80
23147;DHT22;11742;53.532;-1.478;2023-02-02T12:04:50;13.30;92.70
23147;DHT22;11742;53.532;-1.478;2023-02-02T12:07:38;13.30;92.70
23147;DHT22;11742;53.532;-1.478;2023-02-02T12:12:59;13.50;93.00
23147;DHT22;11742;53.532;-1.478;2023-02-02T12:15:41;13.50;92.90
23147;DHT22;11742;53.532;-1.478;2023-02-02T12:21:20;13.60;92.90
23147;DHT22;11742;53.532;-1.478;2023-02-02T12:26:24;13.80;92.70
23147;DHT22;11742;53.532;-1.478;2023-02-02T12:29:09;13.80;92.70
23147;DHT22;11742;53.532;-1.478;2023-02-02T12:42:00;13.80;92.50
23147;DHT22;11742;53.532;-1.478;2023-02-02T12:44:31;13.80;92.50
23147;DHT22;11742;53.532;-1.478;2023-02-02T12:52:36;13.90;92.40
23147;DHT22;11742;53.532;-1.478;2023-02-02T13:00:19;13.90;92.40
23147;DHT22;11742;53.532;-1.478;2023-02-02T13:03:04;13.90;92.30
23147;DHT22;11742;53.532;-1.478;2023-02-02T13:05:42;13.90;92.20
23147;DHT22;11742;53.532;-1.478;2023-02-02T13:08:11;13.90;92.10
23147;DHT22;11742;53.532;-1.478;2023-02-02T13:10:39;13.90;92.20
23147;DHT22;11742;53.532;-1.478;2023-02-02T13:13:16;13.90;92.10
23147;DHT22;11742;53.532;-1.478;2023-02-02T13:15:43;13.90;92.10
23147;DHT22;11742;53.532;-1.478;2023-02-02T13:18:22;13.90;92.00
23147;DHT22;11742;53.532;-1.478;2023-02-02T13:20:51;13.90;92.00
23147;DHT22;11742;53.532;-1.478;2023-02-02T13:23:19;13.90;92.00
23147;DHT22;11742;53.532;-1.478;2023-02-02T13:25:48;13.90;91.90
23147;DHT22;11742;53.532;-1.478;2023-02-02T13:29:02;13.90;91.90
23147;DHT22;11742;53.532;-1.478;2023-02-02T13:31:01;13.90;91.90
23147;DHT22;11742;53.532;-1.478;2023-02-02T13:33:29;14.00;91.90
23147;DHT22;11742;53.532;-1.478;2023-02-02T13:35:59;14.00;91.80
23147;DHT22;11742;53.532;-1.478;2023-02-02T13:38:26;14.00;91.80
23147;DHT22;11742;53.532;-1.478;2023-02-02T13:40:53;14.00;91.80
23147;DHT22;11742;53.532;-1.478;2023-02-02T13:53:38;14.00;91.70
23147;DHT22;11742;53.532;-1.478;2023-02-02T13:56:15;14.00;91.60
23147;DHT22;11742;53.532;-1.478;2023-02-02T14:01:11;14.10;91.60
23147;DHT22;11742;53.532;-1.478;2023-02-02T14:03:38;14.10;91.60
23147;DHT22;11742;53.532;-1.478;2023-02-02T14:06:15;14.10;91.60
23147;DHT22;11742;53.532;-1.478;2023-02-02T14:09:00;14.10;91.60
23147;DHT22;11742;53.532;-1.478;2023-02-02T14:11:33;14.10;91.60
23147;DHT22;11742;53.532;-1.478;2023-02-02T14:14:05;14.10;91.50
23147;DHT22;11742;53.532;-1.478;2023-02-02T14:16:51;14.10;91.50
23147;DHT22;11742;53.532;-1.478;2023-02-02T14:19:45;14.10;91.50
23147;DHT22;11742;53.532;-1.478;2023-02-02T14:24:41;14.10;91.50
23147;DHT22;11742;53.532;-1.478;2023-02-02T14:29:36;14.10;91.50
23147;DHT22;11742;53.532;-1.478;2023-02-02T14:34:37;14.10;91.50
23147;DHT22;11742;53.532;-1.478;2023-02-02T14:39:58;14.10;91.40
23147;DHT22;11742;53.532;-1.478;2023-02-02T14:45:25;14.10;91.40
23147;DHT22;11742;53.532;-1.478;2023-02-02T14:47:51;14.10;91.30
23147;DHT22;11742;53.532;-1.478;2023-02-02T14:50:22;14.20;90.60
23147;DHT22;11742;53.532;-1.478;2023-02-02T14:52:59;14.10;90.70
23147;DHT22;11742;53.532;-1.478;2023-02-02T14:55:25;14.20;90.90
23147;DHT22;11742;53.532;-1.478;2023-02-02T14:57:53;14.10;90.00
23147;DHT22;11742;53.532;-1.478;2023-02-02T15:00:20;14.10;90.60
23147;DHT22;11742;53.532;-1.478;2023-02-02T15:02:46;14.10;90.80
23147;DHT22;11742;53.532;-1.478;2023-02-02T15:08:43;14.10;91.10
23147;DHT22;11742;53.532;-1.478;2023-02-02T15:13:14;14.10;89.30
23147;DHT22;11742;53.532;-1.478;2023-02-02T15:15:41;14.00;90.10
23147;DHT22;11742;53.532;-1.478;2023-02-02T15:18:12;14.00;90.50
23147;DHT22;11742;53.532;-1.478;2023-02-02T15:20:46;14.00;90.70
23147;DHT22;11742;53.532;-1.478;2023-02-02T15:25:53;14.00;90.80
23147;DHT22;11742;53.532;-1.478;2023-02-02T15:31:26;14.10;90.90
23147;DHT22;11742;53.532;-1.478;2023-02-02T15:33:54;14.10;90.90
23147;DHT22;11742;53.532;-1.478;2023-02-02T15:36:26;14.10;90.90
23147;DHT22;11742;53.532;-1.478;2023-02-02T15:38:54;14.10;90.90
23147;DHT22;11742;53.532;-1.478;2023-02-02T15:41:22;14.10;90.90
23147;DHT22;11742;53.532;-1.478;2023-02-02T15:43:49;14.10;90.80
23147;DHT22;11742;53.532;-1.478;2023-02-02T15:46:16;14.10;90.80
23147;DHT22;11742;53.532;-1.478;2023-02-02T15:51:33;14.20;90.90
23147;DHT22;11742;53.532;-1.478;2023-02-02T15:53:58;14.20;90.90
23147;DHT22;11742;53.532;-1.478;2023-02-02T15:58:50;14.20;90.90
23147;DHT22;11742;53.532;-1.478;2023-02-02T16:01:20;14.20;90.90
23147;DHT22;11742;53.532;-1.478;2023-02-02T16:04:01;14.20;90.90
23147;DHT22;11742;53.532;-1.478;2023-02-02T16:06:32;14.20;90.90
23147;DHT22;11742;53.532;-1.478;2023-02-02T16:09:01;14.30;91.00
23147;DHT22;11742;53.532;-1.478;2023-02-02T16:11:27;14.20;91.00
23147;DHT22;11742;53.532;-1.478;2023-02-02T16:13:59;14.30;91.00
23147;DHT22;11742;53.532;-1.478;2023-02-02T16:21:29;14.30;91.00
23147;DHT22;11742;53.532;-1.478;2023-02-02T16:23:55;14.30;90.90
23147;DHT22;11742;53.532;-1.478;2023-02-02T16:26:21;14.30;90.90
23147;DHT22;11742;53.532;-1.478;2023-02-02T16:28:49;14.30;90.90
23147;DHT22;11742;53.532;-1.478;2023-02-02T16:31:15;14.30;90.80
23147;DHT22;11742;53.532;-1.478;2023-02-02T16:33:41;14.30;90.80
23147;DHT22;11742;53.532;-1.478;2023-02-02T16:36:23;14.30;90.90
23147;DHT22;11742;53.532;-1.478;2023-02-02T16:38:49;14.30;90.90
23147;DHT22;11742;53.532;-1.478;2023-02-02T16:41:27;14.30;90.80
23147;DHT22;11742;53.532;-1.478;2023-02-02T16:43:53;14.30;90.80
23147;DHT22;11742;53.532;-1.478;2023-02-02T16:49:02;14.40;90.80
23147;DHT22;11742;53.532;-1.478;2023-02-02T16:51:30;14.30;90.80
23147;DHT22;11742;53.532;-1.478;2023-02-02T16:56:43;14.30;90.80
23147;DHT22;11742;53.532;-1.478;2023-02-02T17:01:49;14.30;90.80
23147;DHT22;11742;53.532;-1.478;2023-02-02T17:04:20;14.30;90.80
23147;DHT22;11742;53.532;-1.478;2023-02-02T17:06:47;14.30;90.80
23147;DHT22;11742;53.532;-1.478;2023-02-02T17:09:25;14.30;90.80
23147;DHT22;11742;53.532;-1.478;2023-02-02T17:14:32;14.40;90.70
23147;DHT22;11742;53.532;-1.478;2023-02-02T17:16:57;14.30;90.70
23147;DHT22;11742;53.532;-1.478;2023-02-02T17:19:24;14.40;89.00
23147;DHT22;11742;53.532;-1.478;2023-02-02T17:21:52;14.30;89.30
23147;DHT22;11742;53.532;-1.478;2023-02-02T17:24:18;14.30;90.00
23147;DHT22;11742;53.532;-1.478;2023-02-02T17:26:44;14.30;90.00
23147;DHT22;11742;53.532;-1.478;2023-02-02T17:29:12;14.30;90.00
23147;DHT22;11742;53.532;-1.478;2023-02-02T17:31:39;14.30;90.00
23147;DHT22;11742;53.532;-1.478;2023-02-02T17:34:08;14.30;89.50
23147;DHT22;11742;53.532;-1.478;2023-02-02T17:36:34;14.20;89.60
23147;DHT22;11742;53.532;-1.478;2023-02-02T17:38:59;14.30;89.70
23147;DHT22;11742;53.532;-1.478;2023-02-02T17:41:25;14.30;89.40